createdAt,value
2022-08-30T00:02:10.892Z,1.00
2022-08-30T00:04:37.791Z,0.75
2022-08-30T00:07:05.060Z,1.00
2022-08-30T00:09:32.406Z,1.00
2022-08-30T00:11:59.397Z,0.90
2022-08-30T00:14:28.082Z,0.93
2022-08-30T00:16:54.965Z,1.20
2022-08-30T00:19:21.805Z,1.05
2022-08-30T00:21:48.658Z,0.80
2022-08-30T00:24:15.525Z,0.98
2022-08-30T00:26:42.308Z,1.20
2022-08-30T00:29:09.279Z,0.73
2022-08-30T00:31:36.087Z,0.70
2022-08-30T00:34:03.398Z,1.35
2022-08-30T00:36:30.261Z,0.80
2022-08-30T00:38:57.093Z,0.77
2022-08-30T00:41:23.966Z,0.90
2022-08-30T00:43:50.797Z,1.05
2022-08-30T00:46:17.756Z,0.82
2022-08-30T00:48:48.042Z,0.80
2022-08-30T00:51:15.992Z,1.23
2022-08-30T00:53:50.759Z,0.77
2022-08-30T00:56:18.856Z,1.15
2022-08-30T00:58:50.561Z,0.98
2022-08-30T01:01:18.255Z,1.17
2022-08-30T01:03:46.201Z,0.95
2022-08-30T01:06:17.273Z,0.90
2022-08-30T01:08:46.091Z,1.05
2022-08-30T01:11:15.493Z,1.10
2022-08-30T01:13:43.607Z,1.17
2022-08-30T01:16:10.938Z,1.20
2022-08-30T01:18:39.676Z,1.20
2022-08-30T01:21:25.285Z,1.13
2022-08-30T01:23:55.757Z,1.02
2022-08-30T01:26:23.216Z,1.25
2022-08-30T01:28:54.851Z,1.10
2022-08-30T01:31:22.451Z,1.23
2022-08-30T01:33:51.111Z,1.42
2022-08-30T01:36:19.583Z,1.73
2022-08-30T01:38:53.721Z,1.13
2022-08-30T01:41:27.850Z,1.20
2022-08-30T01:43:56.670Z,1.13
2022-08-30T01:46:27.415Z,1.58
2022-08-30T01:48:56.484Z,1.20
2022-08-30T01:51:26.569Z,1.40
2022-08-30T01:53:54.204Z,1.38
2022-08-30T01:56:21.935Z,1.63
2022-08-30T01:58:49.111Z,1.85
2022-08-30T02:01:19.759Z,1.40
2022-08-30T02:03:48.421Z,1.60
2022-08-30T02:06:18.192Z,1.80
2022-08-30T02:08:46.177Z,1.38
2022-08-30T02:11:14.452Z,1.20
2022-08-30T02:13:43.143Z,1.40
2022-08-30T02:16:12.595Z,1.38
2022-08-30T02:18:40.244Z,1.25
2022-08-30T02:21:08.314Z,1.40
2022-08-30T02:23:35.897Z,1.42
2022-08-30T02:26:04.478Z,1.80
2022-08-30T02:28:31.358Z,1.48
2022-08-30T02:30:59.800Z,1.25
2022-08-30T02:33:27.018Z,1.08
2022-08-30T02:35:54.029Z,1.55
2022-08-30T02:38:20.849Z,1.60
2022-08-30T02:40:47.728Z,1.70
2022-08-30T02:43:14.913Z,1.15
2022-08-30T02:45:42.328Z,1.15
2022-08-30T02:48:09.635Z,1.10
2022-08-30T02:50:41.452Z,1.60
2022-08-30T02:53:08.251Z,1.23
2022-08-30T02:55:36.220Z,1.38
2022-08-30T02:58:03.483Z,1.80
2022-08-30T03:00:30.932Z,1.20
2022-08-30T03:02:58.359Z,1.35
2022-08-30T03:05:26.109Z,1.30
2022-08-30T03:07:53.013Z,1.80
2022-08-30T03:10:19.910Z,1.25
2022-08-30T03:12:48.022Z,1.30
2022-08-30T03:15:15.942Z,1.33
2022-08-30T03:17:43.250Z,1.45
2022-08-30T03:20:11.971Z,1.25
2022-08-30T03:22:39.690Z,1.60
2022-08-30T03:25:07.111Z,1.25
2022-08-30T03:27:33.953Z,1.50
2022-08-30T03:30:00.946Z,1.52
2022-08-30T03:32:27.779Z,1.80
2022-08-30T03:34:54.625Z,1.52
2022-08-30T03:37:25.591Z,1.55
2022-08-30T03:39:55.230Z,1.80
2022-08-30T03:42:22.613Z,2.05
2022-08-30T03:44:51.879Z,1.77
2022-08-30T03:47:18.715Z,1.65
2022-08-30T03:49:45.508Z,1.77
2022-08-30T03:52:12.306Z,1.65
2022-08-30T03:54:40.195Z,1.80
2022-08-30T03:57:07.339Z,1.90
2022-08-30T03:59:34.233Z,1.77
2022-08-30T04:02:01.063Z,2.28
2022-08-30T04:04:28.045Z,1.63
2022-08-30T04:06:55.411Z,2.53
2022-08-30T04:09:23.046Z,1.98
2022-08-30T04:11:49.852Z,1.73
2022-08-30T04:14:17.441Z,1.95
2022-08-30T04:16:45.107Z,1.95
2022-08-30T04:19:11.975Z,2.38
2022-08-30T04:21:43.026Z,2.10
2022-08-30T04:24:11.139Z,2.00
2022-08-30T04:26:38.125Z,1.77
2022-08-30T04:29:05.316Z,2.38
2022-08-30T04:31:32.215Z,1.58
2022-08-30T04:33:59.141Z,1.90
2022-08-30T04:36:26.052Z,2.00
2022-08-30T04:38:52.896Z,2.17
2022-08-30T04:41:20.874Z,2.78
2022-08-30T04:43:51.535Z,2.63
2022-08-30T04:46:19.415Z,2.40
2022-08-30T04:48:46.933Z,3.05
2022-08-30T04:51:16.314Z,2.38
2022-08-30T04:53:44.084Z,2.33
2022-08-30T04:56:16.407Z,1.95
2022-08-30T04:58:44.933Z,2.60
2022-08-30T05:01:18.986Z,2.20
2022-08-30T05:03:47.947Z,2.63
2022-08-30T05:06:15.681Z,2.40
2022-08-30T05:08:46.215Z,2.50
2022-08-30T05:11:15.415Z,2.22
2022-08-30T05:13:43.637Z,1.65
2022-08-30T05:16:11.068Z,1.98
2022-08-30T05:18:37.953Z,1.85
2022-08-30T05:21:04.840Z,2.05
2022-08-30T05:23:32.039Z,2.22
2022-08-30T05:25:58.886Z,2.28
2022-08-30T05:28:26.419Z,1.88
2022-08-30T05:30:53.461Z,2.40
2022-08-30T05:33:20.280Z,2.42
2022-08-30T05:35:47.204Z,2.63
2022-08-30T05:38:14.016Z,2.42
2022-08-30T05:40:43.037Z,2.80
2022-08-30T05:43:11.305Z,2.03
2022-08-30T05:45:38.275Z,2.30
2022-08-30T05:48:05.448Z,2.08
2022-08-30T05:50:34.113Z,2.40
2022-08-30T05:53:02.639Z,1.98
2022-08-30T05:55:29.455Z,2.60
2022-08-30T05:57:56.319Z,2.38
2022-08-30T06:00:23.786Z,2.95
2022-08-30T06:02:53.972Z,2.35
2022-08-30T06:05:21.059Z,2.42
2022-08-30T06:07:47.919Z,2.10
2022-08-30T06:10:15.229Z,2.60
2022-08-30T06:12:44.166Z,2.53
2022-08-30T06:15:11.568Z,2.22
2022-08-30T06:17:39.879Z,2.58
2022-08-30T06:20:07.632Z,2.25
2022-08-30T06:22:35.014Z,2.53
2022-08-30T06:25:02.005Z,2.00
2022-08-30T06:27:28.836Z,1.88
2022-08-30T06:29:55.696Z,2.00
2022-08-30T06:32:23.011Z,1.70
2022-08-30T06:34:50.106Z,2.08
2022-08-30T06:37:29.271Z,2.08
2022-08-30T06:39:58.695Z,1.90
2022-08-30T06:42:32.115Z,2.05
2022-08-30T06:45:11.042Z,1.83
2022-08-30T06:47:39.262Z,1.45
2022-08-30T06:50:06.896Z,1.38
2022-08-30T06:52:38.512Z,1.55
2022-08-30T06:55:05.982Z,1.58
2022-08-30T06:57:32.887Z,1.83
2022-08-30T07:00:00.064Z,1.50
2022-08-30T07:02:27.021Z,1.88
2022-08-30T07:04:54.138Z,1.33
2022-08-30T07:07:21.253Z,1.10
2022-08-30T07:09:48.155Z,1.52
2022-08-30T07:12:15.856Z,0.95
2022-08-30T07:14:43.105Z,1.10
2022-08-30T07:17:32.494Z,0.57
2022-08-30T07:20:01.426Z,1.00
2022-08-30T07:22:29.052Z,0.80
2022-08-30T07:24:55.874Z,0.47
2022-08-30T07:27:22.689Z,0.70
2022-08-30T07:29:50.306Z,0.52
2022-08-30T07:32:17.216Z,0.63
2022-08-30T07:34:44.104Z,0.82
2022-08-30T07:37:10.999Z,0.60
2022-08-30T07:39:47.833Z,0.28
2022-08-30T07:42:15.432Z,0.65
2022-08-30T07:44:42.376Z,0.60
2022-08-30T07:47:09.391Z,0.50
2022-08-30T07:49:37.666Z,0.50
2022-08-30T07:52:05.057Z,0.43
2022-08-30T07:54:31.907Z,0.50
2022-08-30T07:56:59.165Z,0.30
2022-08-30T07:59:31.796Z,0.30
2022-08-30T08:02:01.852Z,0.40
2022-08-30T08:04:28.827Z,0.40
2022-08-30T08:06:56.355Z,0.68
2022-08-30T08:09:25.621Z,0.45
2022-08-30T08:11:52.912Z,0.28
2022-08-30T08:14:21.737Z,0.40
2022-08-30T08:16:48.588Z,0.30
2022-08-30T08:19:16.013Z,0.40
2022-08-30T08:21:42.874Z,0.22
2022-08-30T08:24:09.898Z,0.30
2022-08-30T08:26:38.601Z,0.25
2022-08-30T08:29:09.931Z,0.40
2022-08-30T08:31:37.671Z,0.30
2022-08-30T08:34:07.839Z,0.50
2022-08-30T08:36:36.040Z,0.50
2022-08-30T08:39:05.049Z,0.45
2022-08-30T08:41:56.057Z,0.30
2022-08-30T08:44:41.117Z,0.73
2022-08-30T08:47:28.211Z,0.35
2022-08-30T08:49:58.538Z,0.60
2022-08-30T08:52:53.012Z,0.20
2022-08-30T08:57:49.446Z,0.20
2022-08-30T09:00:16.403Z,0.50
2022-08-30T09:02:55.718Z,0.52
2022-08-30T09:05:27.358Z,0.30
2022-08-30T09:08:10.096Z,0.30
2022-08-30T09:10:50.372Z,0.30
2022-08-30T09:13:19.084Z,0.30
2022-08-30T09:15:48.969Z,0.32
2022-08-30T09:18:20.043Z,0.50
2022-08-30T09:20:50.034Z,0.30
2022-08-30T09:23:17.375Z,0.13
2022-08-30T09:26:01.332Z,0.50
2022-08-30T09:28:37.872Z,0.30
2022-08-30T09:31:24.350Z,0.60
2022-08-30T09:34:19.144Z,0.63
2022-08-30T09:36:56.029Z,0.40
2022-08-30T09:39:34.508Z,0.30
2022-08-30T09:42:19.827Z,0.30
2022-08-30T09:44:47.165Z,0.40
2022-08-30T09:47:29.735Z,0.70
2022-08-30T09:50:07.920Z,0.40
2022-08-30T09:52:55.581Z,0.40
2022-08-30T09:55:47.204Z,0.60
2022-08-30T09:58:35.747Z,0.45
2022-08-30T10:01:46.216Z,0.30
2022-08-30T10:04:31.052Z,0.20
2022-08-30T10:07:02.598Z,0.30
2022-08-30T10:09:39.026Z,0.10
2022-08-30T10:12:33.533Z,0.60
2022-08-30T10:15:32.789Z,0.30
2022-08-30T10:18:13.991Z,0.20
2022-08-30T10:21:19.882Z,0.88
2022-08-30T10:24:06.321Z,0.28
2022-08-30T10:27:10.959Z,0.30
2022-08-30T10:29:42.513Z,0.40
2022-08-30T10:32:17.645Z,0.50
2022-08-30T10:35:01.503Z,0.47
2022-08-30T10:37:32.140Z,0.43
2022-08-30T10:40:25.768Z,0.40
2022-08-30T10:42:56.343Z,0.30
2022-08-30T10:45:25.850Z,1.20
2022-08-30T10:48:16.479Z,0.30
2022-08-30T10:50:53.588Z,0.30
2022-08-30T10:53:25.333Z,0.60
2022-08-30T10:56:00.364Z,0.52
2022-08-30T10:58:28.093Z,0.35
2022-08-30T11:01:13.441Z,0.28
2022-08-30T11:04:03.072Z,0.40
2022-08-30T11:06:57.992Z,0.52
2022-08-30T11:09:58.190Z,0.47
2022-08-30T11:12:43.789Z,0.45
2022-08-30T11:15:21.791Z,0.30
2022-08-30T11:18:21.881Z,0.40
2022-08-30T11:20:53.199Z,0.40
2022-08-30T11:23:36.278Z,0.40
2022-08-30T11:28:36.007Z,0.40
2022-08-30T11:31:25.907Z,0.30
2022-08-30T11:33:55.523Z,0.30
2022-08-30T11:36:45.912Z,0.50
2022-08-30T11:39:43.774Z,0.22
2022-08-30T11:42:31.999Z,0.40
2022-08-30T11:45:36.157Z,0.50
2022-08-30T11:48:09.479Z,0.30
2022-08-30T11:50:55.070Z,0.40
2022-08-30T11:53:40.902Z,0.30
2022-08-30T11:56:21.306Z,0.40
2022-08-30T11:59:17.972Z,0.20
2022-08-30T12:01:50.815Z,0.28
2022-08-30T12:04:22.983Z,0.30
2022-08-30T12:07:05.320Z,0.52
2022-08-30T12:09:35.298Z,0.25
2022-08-30T12:12:07.370Z,0.30
2022-08-30T12:14:36.350Z,0.20
2022-08-30T12:17:30.679Z,0.25
2022-08-30T12:19:59.839Z,0.30
2022-08-30T12:22:30.408Z,0.20
2022-08-30T12:24:57.744Z,0.25
2022-08-30T12:27:33.388Z,0.30
2022-08-30T12:30:05.083Z,0.30
2022-08-30T12:32:32.777Z,0.30
2022-08-30T12:35:06.074Z,0.32
2022-08-30T12:37:42.334Z,0.47
2022-08-30T12:40:21.984Z,0.65
2022-08-30T12:42:55.837Z,0.10
2022-08-30T12:47:52.296Z,0.20
2022-08-30T12:50:53.519Z,0.22
2022-08-30T12:53:41.795Z,0.75
2022-08-30T12:56:14.216Z,0.40
2022-08-30T12:58:45.699Z,0.30
2022-08-30T13:01:18.582Z,0.38
2022-08-30T13:04:16.215Z,0.20
2022-08-30T13:06:54.645Z,0.20
2022-08-30T13:09:34.635Z,0.32
2022-08-30T13:12:25.921Z,0.32
2022-08-30T13:14:53.730Z,0.20
2022-08-30T13:17:24.979Z,0.30
2022-08-30T13:20:20.661Z,0.20
2022-08-30T13:23:09.218Z,0.20
2022-08-30T13:25:38.346Z,0.38
2022-08-30T13:28:07.752Z,0.30
2022-08-30T13:30:35.356Z,0.30
2022-08-30T13:33:02.981Z,0.30
2022-08-30T13:35:31.077Z,0.30
2022-08-30T13:38:00.841Z,0.30
2022-08-30T13:40:27.886Z,0.20
2022-08-30T13:42:54.773Z,0.22
2022-08-30T13:48:11.354Z,0.20
2022-08-30T13:50:39.186Z,0.60
2022-08-30T13:53:06.265Z,0.35
2022-08-30T13:55:33.895Z,0.22
2022-08-30T13:58:00.876Z,0.30
2022-08-30T14:00:28.298Z,0.30
2022-08-30T14:03:00.084Z,0.25
2022-08-30T14:06:04.879Z,0.43
2022-08-30T14:08:49.943Z,0.30
2022-08-30T14:11:21.152Z,0.17
2022-08-30T14:16:39.078Z,0.40
2022-08-30T14:19:06.327Z,0.40
2022-08-30T14:21:35.371Z,0.20
2022-08-30T14:24:04.777Z,0.30
2022-08-30T14:26:39.436Z,0.20
2022-08-30T14:29:12.414Z,0.20
2022-08-30T14:31:40.807Z,0.22
2022-08-30T14:34:10.891Z,0.20
2022-08-30T14:36:40.961Z,0.55
2022-08-30T14:39:12.036Z,0.52
2022-08-30T14:41:48.359Z,0.35
2022-08-30T14:44:17.363Z,0.40
2022-08-30T14:46:44.251Z,0.50
2022-08-30T14:49:12.671Z,0.50
2022-08-30T14:51:40.288Z,0.30
2022-08-30T14:54:07.551Z,0.30
2022-08-30T14:56:36.448Z,0.30
2022-08-30T14:59:03.496Z,0.28
2022-08-30T15:01:31.522Z,0.30
2022-08-30T15:04:01.250Z,0.25
2022-08-30T15:06:28.426Z,0.30
2022-08-30T15:08:56.088Z,0.10
2022-08-30T15:11:25.719Z,0.30
2022-08-30T15:13:54.065Z,0.17
2022-08-30T15:16:22.430Z,0.28
2022-08-30T15:18:49.521Z,0.25
2022-08-30T15:21:23.759Z,0.20
2022-08-30T15:23:51.205Z,0.30
2022-08-30T15:26:21.743Z,0.22
2022-08-30T15:28:48.737Z,0.38
2022-08-30T15:31:16.184Z,0.45
2022-08-30T15:33:44.312Z,0.30
2022-08-30T15:36:12.765Z,0.30
2022-08-30T15:38:39.854Z,0.20
2022-08-30T15:41:09.729Z,0.32
2022-08-30T15:43:37.132Z,0.20
2022-08-30T15:46:29.533Z,0.70
2022-08-30T15:49:00.677Z,0.30
2022-08-30T15:51:28.414Z,0.75
2022-08-30T15:53:58.374Z,0.35
2022-08-30T15:56:25.589Z,0.30
2022-08-30T15:58:53.200Z,0.30
2022-08-30T16:01:30.178Z,0.50
2022-08-30T16:03:58.469Z,0.30
2022-08-30T16:06:29.175Z,0.20
2022-08-30T16:08:57.295Z,0.43
2022-08-30T16:11:25.147Z,0.35
2022-08-30T16:13:56.639Z,0.45
2022-08-30T16:16:24.876Z,0.40
2022-08-30T16:18:54.276Z,0.28
2022-08-30T16:21:27.234Z,0.38
2022-08-30T16:23:56.960Z,0.22
2022-08-30T16:26:25.399Z,0.40
2022-08-30T16:28:53.498Z,0.22
2022-08-30T16:31:21.512Z,0.40
2022-08-30T16:33:52.674Z,0.25
2022-08-30T16:36:21.205Z,0.30
2022-08-30T16:38:49.184Z,0.20
2022-08-30T16:41:22.299Z,0.25
2022-08-30T16:43:53.548Z,0.40
2022-08-30T16:46:27.453Z,0.30
2022-08-30T16:48:57.265Z,0.30
2022-08-30T16:51:26.035Z,0.47
2022-08-30T16:53:58.396Z,0.30
2022-08-30T16:56:27.415Z,0.30
2022-08-30T16:59:01.317Z,0.28
2022-08-30T17:01:34.804Z,0.20
2022-08-30T17:04:02.666Z,0.20
2022-08-30T17:06:29.852Z,0.30
2022-08-30T17:08:57.134Z,0.25
2022-08-30T17:11:24.851Z,0.28
2022-08-30T17:13:52.712Z,0.15
2022-08-30T17:16:22.827Z,0.30
2022-08-30T17:18:56.098Z,0.30
2022-08-30T17:21:27.194Z,0.30
2022-08-30T17:23:54.052Z,0.43
2022-08-30T17:26:25.736Z,0.30
2022-08-30T17:28:53.004Z,0.40
2022-08-30T17:31:19.966Z,0.20
2022-08-30T17:33:49.032Z,0.30
2022-08-30T17:36:16.752Z,0.25
2022-08-30T17:38:44.837Z,0.20
2022-08-30T17:41:12.164Z,0.20
2022-08-30T17:43:39.576Z,0.25
2022-08-30T17:46:09.639Z,0.20
2022-08-30T17:48:36.808Z,0.30
2022-08-30T17:51:04.672Z,0.28
2022-08-30T17:53:32.251Z,0.40
2022-08-30T17:55:59.576Z,0.35
2022-08-30T17:58:27.158Z,0.40
2022-08-30T18:01:03.688Z,0.20
2022-08-30T18:03:30.578Z,0.20
2022-08-30T18:05:59.468Z,0.20
2022-08-30T18:08:26.836Z,0.88
2022-08-30T18:10:53.804Z,0.30
2022-08-30T18:13:20.965Z,0.60
2022-08-30T18:15:50.820Z,0.30
2022-08-30T18:18:18.590Z,0.32
2022-08-30T18:20:46.589Z,0.68
2022-08-30T18:23:13.996Z,0.10
2022-08-30T18:25:42.531Z,0.57
2022-08-30T18:28:10.243Z,0.32
2022-08-30T18:30:41.496Z,0.35
2022-08-30T18:33:09.260Z,0.32
2022-08-30T18:35:37.608Z,0.30
2022-08-30T18:38:04.692Z,0.60
2022-08-30T18:40:31.634Z,0.52
2022-08-30T18:42:58.497Z,0.38
2022-08-30T18:45:25.331Z,0.40
2022-08-30T18:47:52.724Z,0.40
2022-08-30T18:50:19.641Z,0.40
2022-08-30T18:52:47.009Z,0.40
2022-08-30T18:55:13.922Z,0.35
2022-08-30T18:57:41.098Z,0.40
2022-08-30T19:00:10.382Z,0.35
2022-08-30T19:02:39.082Z,0.47
2022-08-30T19:05:10.840Z,0.28
2022-08-30T19:07:37.779Z,0.30
2022-08-30T19:10:07.077Z,0.40
2022-08-30T19:12:33.924Z,0.40
2022-08-30T19:15:00.848Z,0.20
2022-08-30T19:17:27.815Z,0.20
2022-08-30T19:19:55.173Z,0.40
2022-08-30T19:22:26.624Z,0.40
2022-08-30T19:24:54.367Z,0.40
2022-08-30T19:27:37.657Z,0.22
2022-08-30T19:30:10.931Z,0.40
2022-08-30T19:32:38.139Z,0.30
2022-08-30T19:35:06.113Z,0.28
2022-08-30T19:37:34.413Z,0.40
2022-08-30T19:40:02.621Z,0.80
2022-08-30T19:42:29.481Z,0.30
2022-08-30T19:44:56.339Z,0.30
2022-08-30T19:47:23.184Z,0.30
2022-08-30T19:49:50.219Z,0.20
2022-08-30T19:52:18.793Z,0.10
2022-08-30T19:54:45.787Z,0.20
2022-08-30T19:57:12.992Z,0.30
2022-08-30T19:59:41.105Z,0.22
2022-08-30T20:02:08.532Z,0.50
2022-08-30T20:04:35.417Z,0.20
2022-08-30T20:07:02.521Z,0.40
2022-08-30T20:09:29.541Z,0.30
2022-08-30T20:11:57.374Z,0.50
2022-08-30T20:14:26.188Z,0.20
2022-08-30T20:16:53.368Z,0.22
2022-08-30T20:19:21.880Z,0.30
2022-08-30T20:21:54.592Z,0.47
2022-08-30T20:24:28.281Z,0.32
2022-08-30T20:26:57.487Z,0.30
2022-08-30T20:29:24.515Z,1.38
2022-08-30T20:31:51.361Z,0.22
2022-08-30T20:34:19.059Z,0.20
2022-08-30T20:36:45.873Z,0.22
2022-08-30T20:39:17.630Z,0.57
2022-08-30T20:41:45.335Z,0.40
2022-08-30T20:44:13.662Z,0.30
2022-08-30T20:46:46.838Z,0.35
2022-08-30T20:49:14.480Z,0.20
2022-08-30T20:51:41.800Z,0.25
2022-08-30T20:54:09.012Z,0.20
2022-08-30T20:56:36.479Z,0.30
2022-08-30T20:59:04.604Z,0.22
2022-08-30T21:01:34.503Z,0.20
2022-08-30T21:04:02.775Z,0.30
2022-08-30T21:06:29.805Z,0.30
2022-08-30T21:08:56.667Z,0.40
2022-08-30T21:11:23.634Z,0.30
2022-08-30T21:13:50.519Z,0.45
2022-08-30T21:16:17.712Z,0.13
2022-08-30T21:18:49.256Z,0.20
2022-08-30T21:21:22.178Z,0.20
2022-08-30T21:23:50.066Z,0.30
2022-08-30T21:26:18.233Z,0.30
2022-08-30T21:28:49.715Z,0.73
2022-08-30T21:31:19.878Z,0.32
2022-08-30T21:33:48.606Z,0.20
2022-08-30T21:36:34.582Z,0.32
2022-08-30T21:39:02.723Z,0.20
2022-08-30T21:41:31.498Z,0.20
2022-08-30T21:44:00.195Z,0.13
2022-08-30T21:46:28.475Z,0.13
2022-08-30T21:48:59.164Z,0.28
2022-08-30T21:51:25.974Z,0.20
2022-08-30T21:53:52.868Z,0.30
2022-08-30T21:56:22.275Z,0.10
2022-08-30T21:58:49.697Z,0.20
2022-08-30T22:01:23.678Z,0.20
2022-08-30T22:03:52.787Z,0.55
2022-08-30T22:06:19.895Z,0.20
2022-08-30T22:08:50.021Z,0.20
2022-08-30T22:11:20.091Z,0.20
2022-08-30T22:13:48.834Z,0.25
2022-08-30T22:16:17.050Z,0.40
2022-08-30T22:18:44.844Z,0.20
2022-08-30T22:21:14.298Z,0.22
2022-08-30T22:23:41.718Z,0.20
2022-08-30T22:26:11.073Z,0.30
2022-08-30T22:28:38.396Z,0.10
2022-08-30T22:31:08.533Z,0.20
2022-08-30T22:33:36.050Z,0.25
2022-08-30T22:36:08.841Z,0.20
2022-08-30T22:38:36.310Z,0.25
2022-08-30T22:41:03.707Z,0.35
2022-08-30T22:43:30.951Z,0.22
2022-08-30T22:45:58.181Z,0.17
2022-08-30T22:48:25.068Z,0.17
2022-08-30T22:50:52.150Z,0.28
2022-08-30T22:53:19.432Z,0.30
2022-08-30T22:55:46.343Z,0.20
2022-08-30T22:58:13.305Z,0.22
2022-08-30T23:00:46.377Z,0.32
2022-08-30T23:03:21.667Z,0.13
2022-08-30T23:05:48.535Z,0.28
2022-08-30T23:08:15.384Z,0.22
2022-08-30T23:10:42.363Z,0.50
2022-08-30T23:13:09.198Z,0.32
2022-08-30T23:15:36.670Z,0.25
2022-08-30T23:18:05.517Z,0.25
2022-08-30T23:20:32.679Z,0.25
2022-08-30T23:22:59.621Z,0.10
2022-08-30T23:25:52.116Z,0.10
2022-08-30T23:28:39.682Z,0.17
2022-08-30T23:31:34.230Z,0.32
2022-08-30T23:34:20.105Z,0.10
2022-08-30T23:37:06.000Z,0.20
2022-08-30T23:39:51.336Z,0.30
2022-08-30T23:42:36.568Z,0.20
2022-08-30T23:45:22.626Z,0.20
2022-08-30T23:48:08.060Z,0.20
2022-08-30T23:50:53.344Z,0.20
2022-08-30T23:53:43.771Z,0.13
2022-08-30T23:56:33.032Z,0.20
2022-08-30T23:59:18.339Z,0.20
